sensor_id;sensor_type;location;lat;lon;timestamp;temperature;humidity
10873;DHT22;34586;53.616;10.032;2022-10-30T00:02:15;13.80;99.90
10873;DHT22;34586;53.616;10.032;2022-10-30T00:04:40;13.90;99.90
10873;DHT22;34586;53.616;10.032;2022-10-30T00:07:06;13.80;99.90
10873;DHT22;34586;53.616;10.032;2022-10-30T00:09:32;13.90;99.90
10873;DHT22;34586;53.616;10.032;2022-10-30T00:11:57;13.80;99.90
10873;DHT22;34586;53.616;10.032;2022-10-30T00:14:23;13.80;99.90
10873;DHT22;34586;53.616;10.032;2022-10-30T00:16:48;13.80;99.90
10873;DHT22;34586;53.616;10.032;2022-10-30T00:19:14;13.90;99.90
10873;DHT22;34586;53.616;10.032;2022-10-30T00:21:41;13.90;99.90
10873;DHT22;34586;53.616;10.032;2022-10-30T00:24:07;13.80;99.90
10873;DHT22;34586;53.616;10.032;2022-10-30T00:26:32;13.90;99.90
10873;DHT22;34586;53.616;10.032;2022-10-30T00:28:58;13.90;99.90
10873;DHT22;34586;53.616;10.032;2022-10-30T00:31:23;13.80;99.90
10873;DHT22;34586;53.616;10.032;2022-10-30T00:33:51;13.80;99.90
10873;DHT22;34586;53.616;10.032;2022-10-30T00:36:17;13.80;99.90
10873;DHT22;34586;53.616;10.032;2022-10-30T00:38:43;13.80;99.90
10873;DHT22;34586;53.616;10.032;2022-10-30T00:41:21;13.80;99.90
10873;DHT22;34586;53.616;10.032;2022-10-30T00:43:47;13.80;99.90
10873;DHT22;34586;53.616;10.032;2022-10-30T00:48:57;13.80;99.90
10873;DHT22;34586;53.616;10.032;2022-10-30T00:51:27;13.80;99.90
10873;DHT22;34586;53.616;10.032;2022-10-30T00:53:54;13.80;99.90
10873;DHT22;34586;53.616;10.032;2022-10-30T00:56:21;13.90;99.90
10873;DHT22;34586;53.616;10.032;2022-10-30T00:58:53;13.70;99.90
10873;DHT22;34586;53.616;10.032;2022-10-30T01:01:23;13.80;99.90
10873;DHT22;34586;53.616;10.032;2022-10-30T01:03:53;13.70;99.90
10873;DHT22;34586;53.616;10.032;2022-10-30T01:06:20;13.70;99.90
10873;DHT22;34586;53.616;10.032;2022-10-30T01:08:46;13.70;99.90
10873;DHT22;34586;53.616;10.032;2022-10-30T01:11:12;13.80;99.90
10873;DHT22;34586;53.616;10.032;2022-10-30T01:13:39;13.60;99.90
10873;DHT22;34586;53.616;10.032;2022-10-30T01:27:48;13.60;99.90
10873;DHT22;34586;53.616;10.032;2022-10-30T01:33:09;13.60;99.90
10873;DHT22;34586;53.616;10.032;2022-10-30T01:35:48;13.60;99.90
10873;DHT22;34586;53.616;10.032;2022-10-30T01:38:22;13.60;99.90
10873;DHT22;34586;53.616;10.032;2022-10-30T01:40:50;13.60;99.90
10873;DHT22;34586;53.616;10.032;2022-10-30T01:43:16;13.60;99.90
10873;DHT22;34586;53.616;10.032;2022-10-30T01:46:07;13.60;99.90
10873;DHT22;34586;53.616;10.032;2022-10-30T01:51:42;13.70;99.90
10873;DHT22;34586;53.616;10.032;2022-10-30T01:57:37;13.70;99.90
10873;DHT22;34586;53.616;10.032;2022-10-30T02:00:11;13.70;99.90
10873;DHT22;34586;53.616;10.032;2022-10-30T02:02:38;13.60;99.90
10873;DHT22;34586;53.616;10.032;2022-10-30T02:05:09;13.60;99.90
10873;DHT22;34586;53.616;10.032;2022-10-30T02:07:36;13.60;99.90
10873;DHT22;34586;53.616;10.032;2022-10-30T02:10:03;13.60;99.90
10873;DHT22;34586;53.616;10.032;2022-10-30T02:12:30;13.60;99.90
10873;DHT22;34586;53.616;10.032;2022-10-30T02:14:58;13.50;99.90
10873;DHT22;34586;53.616;10.032;2022-10-30T02:17:25;13.50;99.90
10873;DHT22;34586;53.616;10.032;2022-10-30T02:19:51;13.50;99.90
10873;DHT22;34586;53.616;10.032;2022-10-30T02:22:17;13.40;99.90
10873;DHT22;34586;53.616;10.032;2022-10-30T02:24:44;13.40;99.90
10873;DHT22;34586;53.616;10.032;2022-10-30T02:27:09;13.40;99.90
10873;DHT22;34586;53.616;10.032;2022-10-30T02:29:35;13.30;99.90
10873;DHT22;34586;53.616;10.032;2022-10-30T02:32:01;13.30;99.90
10873;DHT22;34586;53.616;10.032;2022-10-30T02:34:27;13.30;99.90
10873;DHT22;34586;53.616;10.032;2022-10-30T02:36:52;13.30;99.90
10873;DHT22;34586;53.616;10.032;2022-10-30T02:39:18;13.30;99.90
10873;DHT22;34586;53.616;10.032;2022-10-30T02:41:46;13.30;99.90
10873;DHT22;34586;53.616;10.032;2022-10-30T02:44:11;13.30;99.90
10873;DHT22;34586;53.616;10.032;2022-10-30T02:46:37;13.30;99.90
10873;DHT22;34586;53.616;10.032;2022-10-30T02:49:02;13.30;99.90
10873;DHT22;34586;53.616;10.032;2022-10-30T02:51:30;13.20;99.90
10873;DHT22;34586;53.616;10.032;2022-10-30T02:53:57;13.20;99.90
10873;DHT22;34586;53.616;10.032;2022-10-30T02:56:23;13.20;99.90
10873;DHT22;34586;53.616;10.032;2022-10-30T02:58:48;13.10;99.90
10873;DHT22;34586;53.616;10.032;2022-10-30T03:01:17;13.10;99.90
10873;DHT22;34586;53.616;10.032;2022-10-30T03:03:43;13.10;99.90
10873;DHT22;34586;53.616;10.032;2022-10-30T03:06:11;13.10;99.90
10873;DHT22;34586;53.616;10.032;2022-10-30T03:08:37;13.00;99.90
10873;DHT22;34586;53.616;10.032;2022-10-30T03:11:06;13.00;99.90
10873;DHT22;34586;53.616;10.032;2022-10-30T03:13:33;13.00;99.90
10873;DHT22;34586;53.616;10.032;2022-10-30T03:16:05;12.90;99.90
10873;DHT22;34586;53.616;10.032;2022-10-30T03:18:31;12.90;99.90
10873;DHT22;34586;53.616;10.032;2022-10-30T03:21:01;12.90;99.90
10873;DHT22;34586;53.616;10.032;2022-10-30T03:23:27;12.90;99.90
10873;DHT22;34586;53.616;10.032;2022-10-30T03:25:54;12.80;99.90
10873;DHT22;34586;53.616;10.032;2022-10-30T03:28:22;12.80;99.90
10873;DHT22;34586;53.616;10.032;2022-10-30T03:30:48;12.80;99.90
10873;DHT22;34586;53.616;10.032;2022-10-30T03:33:14;12.80;99.90
10873;DHT22;34586;53.616;10.032;2022-10-30T03:35:42;12.70;99.90
10873;DHT22;34586;53.616;10.032;2022-10-30T03:38:08;12.70;99.90
10873;DHT22;34586;53.616;10.032;2022-10-30T03:40:34;12.70;99.90
10873;DHT22;34586;53.616;10.032;2022-10-30T03:42:59;12.70;99.90
10873;DHT22;34586;53.616;10.032;2022-10-30T03:45:25;12.70;99.90
10873;DHT22;34586;53.616;10.032;2022-10-30T03:47:50;12.80;99.90
10873;DHT22;34586;53.616;10.032;2022-10-30T03:50:16;12.60;99.90
10873;DHT22;34586;53.616;10.032;2022-10-30T03:52:41;12.50;99.90
10873;DHT22;34586;53.616;10.032;2022-10-30T03:55:07;12.50;99.90
10873;DHT22;34586;53.616;10.032;2022-10-30T03:57:36;12.50;99.90
10873;DHT22;34586;53.616;10.032;2022-10-30T04:00:02;12.40;99.90
10873;DHT22;34586;53.616;10.032;2022-10-30T04:02:28;12.40;99.90
10873;DHT22;34586;53.616;10.032;2022-10-30T04:04:54;12.40;99.90
10873;DHT22;34586;53.616;10.032;2022-10-30T04:07:20;12.40;99.90
10873;DHT22;34586;53.616;10.032;2022-10-30T04:09:45;12.40;99.90
10873;DHT22;34586;53.616;10.032;2022-10-30T04:12:11;12.40;99.90
10873;DHT22;34586;53.616;10.032;2022-10-30T04:14:37;12.40;99.90
10873;DHT22;34586;53.616;10.032;2022-10-30T04:17:02;12.50;99.90
10873;DHT22;34586;53.616;10.032;2022-10-30T04:19:30;12.30;99.90
10873;DHT22;34586;53.616;10.032;2022-10-30T04:21:56;12.30;99.90
10873;DHT22;34586;53.616;10.032;2022-10-30T04:24:21;12.40;99.90
10873;DHT22;34586;53.616;10.032;2022-10-30T04:26:47;12.40;99.90
10873;DHT22;34586;53.616;10.032;2022-10-30T04:29:13;12.40;99.90
10873;DHT22;34586;53.616;10.032;2022-10-30T04:31:38;12.40;99.90
10873;DHT22;34586;53.616;10.032;2022-10-30T04:34:04;12.40;99.90
10873;DHT22;34586;53.616;10.032;2022-10-30T04:36:30;12.40;99.90
10873;DHT22;34586;53.616;10.032;2022-10-30T04:38:58;12.40;99.90
10873;DHT22;34586;53.616;10.032;2022-10-30T04:41:24;12.40;99.90
10873;DHT22;34586;53.616;10.032;2022-10-30T04:43:50;12.40;99.90
10873;DHT22;34586;53.616;10.032;2022-10-30T04:46:17;12.50;99.90
10873;DHT22;34586;53.616;10.032;2022-10-30T04:48:43;12.50;99.90
10873;DHT22;34586;53.616;10.032;2022-10-30T04:51:10;12.50;99.90
10873;DHT22;34586;53.616;10.032;2022-10-30T04:53:37;12.50;99.90
10873;DHT22;34586;53.616;10.032;2022-10-30T04:56:05;12.40;99.90
10873;DHT22;34586;53.616;10.032;2022-10-30T04:58:31;12.50;99.90
10873;DHT22;34586;53.616;10.032;2022-10-30T05:01:01;12.50;99.90
10873;DHT22;34586;53.616;10.032;2022-10-30T05:03:27;12.60;99.90
10873;DHT22;34586;53.616;10.032;2022-10-30T05:06:00;12.60;99.90
10873;DHT22;34586;53.616;10.032;2022-10-30T05:08:26;12.60;99.90
10873;DHT22;34586;53.616;10.032;2022-10-30T05:10:53;12.60;99.90
10873;DHT22;34586;53.616;10.032;2022-10-30T05:13:18;12.60;99.90
10873;DHT22;34586;53.616;10.032;2022-10-30T05:15:44;12.60;99.90
10873;DHT22;34586;53.616;10.032;2022-10-30T05:18:09;12.60;99.90
10873;DHT22;34586;53.616;10.032;2022-10-30T05:20:35;12.60;99.90
10873;DHT22;34586;53.616;10.032;2022-10-30T05:23:01;12.60;99.90
10873;DHT22;34586;53.616;10.032;2022-10-30T05:25:27;12.60;99.90
10873;DHT22;34586;53.616;10.032;2022-10-30T05:28:00;12.60;99.90
10873;DHT22;34586;53.616;10.032;2022-10-30T05:30:30;12.60;99.90
10873;DHT22;34586;53.616;10.032;2022-10-30T05:33:03;12.60;99.90
10873;DHT22;34586;53.616;10.032;2022-10-30T05:35:30;12.50;99.90
10873;DHT22;34586;53.616;10.032;2022-10-30T05:37:57;12.50;99.90
10873;DHT22;34586;53.616;10.032;2022-10-30T05:40:23;12.50;99.90
10873;DHT22;34586;53.616;10.032;2022-10-30T05:42:49;12.50;99.90
10873;DHT22;34586;53.616;10.032;2022-10-30T05:45:16;12.50;99.90
10873;DHT22;34586;53.616;10.032;2022-10-30T05:47:42;12.50;99.90
10873;DHT22;34586;53.616;10.032;2022-10-30T05:50:08;12.40;99.90
10873;DHT22;34586;53.616;10.032;2022-10-30T05:52:34;12.40;99.90
10873;DHT22;34586;53.616;10.032;2022-10-30T05:55:00;12.40;99.90
10873;DHT22;34586;53.616;10.032;2022-10-30T05:57:29;12.40;99.90
10873;DHT22;34586;53.616;10.032;2022-10-30T05:59:57;12.40;99.90
10873;DHT22;34586;53.616;10.032;2022-10-30T06:02:23;12.30;99.90
10873;DHT22;34586;53.616;10.032;2022-10-30T06:04:48;12.30;99.90
10873;DHT22;34586;53.616;10.032;2022-10-30T06:07:14;12.30;99.90
10873;DHT22;34586;53.616;10.032;2022-10-30T06:09:39;12.30;99.90
10873;DHT22;34586;53.616;10.032;2022-10-30T06:12:05;12.10;99.90
10873;DHT22;34586;53.616;10.032;2022-10-30T06:14:31;12.20;99.90
10873;DHT22;34586;53.616;10.032;2022-10-30T06:16:56;12.10;99.90
10873;DHT22;34586;53.616;10.032;2022-10-30T06:19:22;12.10;99.90
10873;DHT22;34586;53.616;10.032;2022-10-30T06:21:47;12.10;99.90
10873;DHT22;34586;53.616;10.032;2022-10-30T06:24:13;12.10;99.90
10873;DHT22;34586;53.616;10.032;2022-10-30T06:26:39;12.10;99.90
10873;DHT22;34586;53.616;10.032;2022-10-30T06:29:04;12.10;99.90
10873;DHT22;34586;53.616;10.032;2022-10-30T06:31:30;12.10;99.90
10873;DHT22;34586;53.616;10.032;2022-10-30T06:33:55;12.20;99.90
10873;DHT22;34586;53.616;10.032;2022-10-30T06:36:21;12.10;99.90
10873;DHT22;34586;53.616;10.032;2022-10-30T06:38:47;12.10;99.90
10873;DHT22;34586;53.616;10.032;2022-10-30T06:41:12;12.10;99.90
10873;DHT22;34586;53.616;10.032;2022-10-30T06:43:38;12.10;99.90
10873;DHT22;34586;53.616;10.032;2022-10-30T06:46:03;12.20;99.90
10873;DHT22;34586;53.616;10.032;2022-10-30T06:48:29;12.20;99.90
10873;DHT22;34586;53.616;10.032;2022-10-30T06:50:56;12.20;99.90
10873;DHT22;34586;53.616;10.032;2022-10-30T06:53:22;12.30;99.90
10873;DHT22;34586;53.616;10.032;2022-10-30T06:55:58;12.30;99.90
10873;DHT22;34586;53.616;10.032;2022-10-30T06:58:25;12.30;99.90
10873;DHT22;34586;53.616;10.032;2022-10-30T07:00:50;12.20;99.90
10873;DHT22;34586;53.616;10.032;2022-10-30T07:03:17;12.40;99.90
10873;DHT22;34586;53.616;10.032;2022-10-30T07:05:44;12.50;99.90
10873;DHT22;34586;53.616;10.032;2022-10-30T07:08:10;12.50;99.90
10873;DHT22;34586;53.616;10.032;2022-10-30T07:10:36;12.60;99.90
10873;DHT22;34586;53.616;10.032;2022-10-30T07:13:01;12.60;99.90
10873;DHT22;34586;53.616;10.032;2022-10-30T07:15:27;12.60;99.90
10873;DHT22;34586;53.616;10.032;2022-10-30T07:18:01;12.60;99.90
10873;DHT22;34586;53.616;10.032;2022-10-30T07:20:31;12.70;99.90
10873;DHT22;34586;53.616;10.032;2022-10-30T07:22:57;12.70;99.90
10873;DHT22;34586;53.616;10.032;2022-10-30T07:25:23;12.70;99.90
10873;DHT22;34586;53.616;10.032;2022-10-30T07:27:50;12.80;99.90
10873;DHT22;34586;53.616;10.032;2022-10-30T07:30:18;12.70;99.90
10873;DHT22;34586;53.616;10.032;2022-10-30T07:32:44;12.70;99.90
10873;DHT22;34586;53.616;10.032;2022-10-30T07:35:12;12.80;99.90
10873;DHT22;34586;53.616;10.032;2022-10-30T07:37:38;12.80;99.90
10873;DHT22;34586;53.616;10.032;2022-10-30T07:40:05;12.80;99.90
10873;DHT22;34586;53.616;10.032;2022-10-30T07:42:31;12.80;99.90
10873;DHT22;34586;53.616;10.032;2022-10-30T07:44:57;12.80;99.90
10873;DHT22;34586;53.616;10.032;2022-10-30T07:47:22;12.90;99.90
10873;DHT22;34586;53.616;10.032;2022-10-30T07:49:48;12.90;99.90
10873;DHT22;34586;53.616;10.032;2022-10-30T07:52:13;13.00;99.90
10873;DHT22;34586;53.616;10.032;2022-10-30T07:54:39;13.10;99.90
10873;DHT22;34586;53.616;10.032;2022-10-30T07:57:05;13.20;99.90
10873;DHT22;34586;53.616;10.032;2022-10-30T07:59:30;13.20;99.90
10873;DHT22;34586;53.616;10.032;2022-10-30T08:01:56;13.30;99.90
10873;DHT22;34586;53.616;10.032;2022-10-30T08:04:21;13.50;99.90
10873;DHT22;34586;53.616;10.032;2022-10-30T08:06:47;13.60;99.90
10873;DHT22;34586;53.616;10.032;2022-10-30T08:09:12;13.80;99.90
10873;DHT22;34586;53.616;10.032;2022-10-30T08:11:38;13.70;99.90
10873;DHT22;34586;53.616;10.032;2022-10-30T08:14:03;13.70;99.90
10873;DHT22;34586;53.616;10.032;2022-10-30T08:16:29;13.80;99.90
10873;DHT22;34586;53.616;10.032;2022-10-30T08:18:55;13.90;99.90
10873;DHT22;34586;53.616;10.032;2022-10-30T08:21:20;13.90;99.90
10873;DHT22;34586;53.616;10.032;2022-10-30T08:23:46;14.00;99.90
10873;DHT22;34586;53.616;10.032;2022-10-30T08:26:13;14.00;99.90
10873;DHT22;34586;53.616;10.032;2022-10-30T08:28:40;14.00;99.90
10873;DHT22;34586;53.616;10.032;2022-10-30T08:31:06;14.00;99.90
10873;DHT22;34586;53.616;10.032;2022-10-30T08:33:31;14.20;99.90
10873;DHT22;34586;53.616;10.032;2022-10-30T08:35:58;14.00;99.90
10873;DHT22;34586;53.616;10.032;2022-10-30T08:38:25;14.30;99.90
10873;DHT22;34586;53.616;10.032;2022-10-30T08:40:51;15.20;99.90
10873;DHT22;34586;53.616;10.032;2022-10-30T08:43:17;14.10;99.90
10873;DHT22;34586;53.616;10.032;2022-10-30T08:45:43;14.10;99.90
10873;DHT22;34586;53.616;10.032;2022-10-30T08:48:10;14.10;99.90
10873;DHT22;34586;53.616;10.032;2022-10-30T08:50:36;14.20;99.90
10873;DHT22;34586;53.616;10.032;2022-10-30T08:53:04;14.20;99.90
10873;DHT22;34586;53.616;10.032;2022-10-30T08:55:30;15.10;99.90
10873;DHT22;34586;53.616;10.032;2022-10-30T08:57:56;14.30;99.90
10873;DHT22;34586;53.616;10.032;2022-10-30T09:00:22;14.30;99.90
10873;DHT22;34586;53.616;10.032;2022-10-30T09:02:47;14.40;99.90
10873;DHT22;34586;53.616;10.032;2022-10-30T09:05:13;14.50;99.90
10873;DHT22;34586;53.616;10.032;2022-10-30T09:07:39;14.60;99.90
10873;DHT22;34586;53.616;10.032;2022-10-30T09:10:05;14.70;99.90
10873;DHT22;34586;53.616;10.032;2022-10-30T09:12:30;14.70;99.90
10873;DHT22;34586;53.616;10.032;2022-10-30T09:14:57;14.80;99.90
10873;DHT22;34586;53.616;10.032;2022-10-30T09:17:23;15.30;99.90
10873;DHT22;34586;53.616;10.032;2022-10-30T09:19:48;15.00;99.90
10873;DHT22;34586;53.616;10.032;2022-10-30T09:22:14;15.10;99.90
10873;DHT22;34586;53.616;10.032;2022-10-30T09:24:39;15.20;99.90
10873;DHT22;34586;53.616;10.032;2022-10-30T09:27:06;16.30;99.90
10873;DHT22;34586;53.616;10.032;2022-10-30T09:29:32;15.50;99.90
10873;DHT22;34586;53.616;10.032;2022-10-30T09:32:00;15.40;99.90
10873;DHT22;34586;53.616;10.032;2022-10-30T09:34:26;15.60;99.90
10873;DHT22;34586;53.616;10.032;2022-10-30T09:36:51;15.90;99.90
10873;DHT22;34586;53.616;10.032;2022-10-30T09:39:17;15.90;99.90
10873;DHT22;34586;53.616;10.032;2022-10-30T09:50:27;16.00;99.90
10873;DHT22;34586;53.616;10.032;2022-10-30T09:53:24;16.10;99.90
10873;DHT22;34586;53.616;10.032;2022-10-30T09:56:05;16.10;99.90
10873;DHT22;34586;53.616;10.032;2022-10-30T10:06:49;16.60;99.90
10873;DHT22;34586;53.616;10.032;2022-10-30T10:09:23;16.70;99.90
10873;DHT22;34586;53.616;10.032;2022-10-30T10:11:59;16.70;99.90
10873;DHT22;34586;53.616;10.032;2022-10-30T10:14:29;16.80;99.90
10873;DHT22;34586;53.616;10.032;2022-10-30T10:17:00;16.90;99.90
10873;DHT22;34586;53.616;10.032;2022-10-30T10:19:37;16.90;99.90
10873;DHT22;34586;53.616;10.032;2022-10-30T10:22:16;16.90;99.90
10873;DHT22;34586;53.616;10.032;2022-10-30T10:24:43;16.90;99.90
10873;DHT22;34586;53.616;10.032;2022-10-30T10:28:06;17.00;99.90
10873;DHT22;34586;53.616;10.032;2022-10-30T10:31:14;17.00;99.90
10873;DHT22;34586;53.616;10.032;2022-10-30T10:36:48;17.20;96.60
10873;DHT22;34586;53.616;10.032;2022-10-30T10:41:56;17.20;99.90
10873;DHT22;34586;53.616;10.032;2022-10-30T10:47:24;17.40;90.00
10873;DHT22;34586;53.616;10.032;2022-10-30T10:50:14;17.40;93.20
10873;DHT22;34586;53.616;10.032;2022-10-30T10:52:53;17.70;94.60
10873;DHT22;34586;53.616;10.032;2022-10-30T10:55:25;17.60;66.30
10873;DHT22;34586;53.616;10.032;2022-10-30T10:57:54;17.60;62.70
10873;DHT22;34586;53.616;10.032;2022-10-30T11:00:22;17.70;35.00
10873;DHT22;34586;53.616;10.032;2022-10-30T11:03:16;17.80;39.00
10873;DHT22;34586;53.616;10.032;2022-10-30T11:05:54;17.80;49.90
10873;DHT22;34586;53.616;10.032;2022-10-30T11:08:32;17.70;68.80
10873;DHT22;34586;53.616;10.032;2022-10-30T11:11:03;17.70;72.60
10873;DHT22;34586;53.616;10.032;2022-10-30T11:13:38;17.80;66.10
10873;DHT22;34586;53.616;10.032;2022-10-30T11:16:17;17.80;50.80
10873;DHT22;34586;53.616;10.032;2022-10-30T11:18:47;17.90;28.00
10873;DHT22;34586;53.616;10.032;2022-10-30T11:21:17;18.00;45.10
10873;DHT22;34586;53.616;10.032;2022-10-30T11:23:45;18.00;36.00
10873;DHT22;34586;53.616;10.032;2022-10-30T11:32:17;18.30;1.00
10873;DHT22;34586;53.616;10.032;2022-10-30T11:34:42;18.50;1.00
10873;DHT22;34586;53.616;10.032;2022-10-30T11:37:29;18.50;1.00
10873;DHT22;34586;53.616;10.032;2022-10-30T11:42:58;18.80;1.00
10873;DHT22;34586;53.616;10.032;2022-10-30T11:45:30;18.70;1.00
10873;DHT22;34586;53.616;10.032;2022-10-30T11:47:58;18.70;1.00
10873;DHT22;34586;53.616;10.032;2022-10-30T11:50:31;18.80;1.00
10873;DHT22;34586;53.616;10.032;2022-10-30T11:53:02;18.80;1.00
10873;DHT22;34586;53.616;10.032;2022-10-30T11:55:39;18.80;1.00
10873;DHT22;34586;53.616;10.032;2022-10-30T11:58:06;19.00;1.00
10873;DHT22;34586;53.616;10.032;2022-10-30T12:00:36;19.10;1.00
10873;DHT22;34586;53.616;10.032;2022-10-30T12:03:02;19.20;1.00
10873;DHT22;34586;53.616;10.032;2022-10-30T12:08:16;19.30;1.00
10873;DHT22;34586;53.616;10.032;2022-10-30T12:10:59;19.40;1.00
10873;DHT22;34586;53.616;10.032;2022-10-30T12:13:26;19.60;1.00
10873;DHT22;34586;53.616;10.032;2022-10-30T12:18:31;20.20;48.70
10873;DHT22;34586;53.616;10.032;2022-10-30T12:20:57;20.20;99.90
10873;DHT22;34586;53.616;10.032;2022-10-30T12:23:25;20.30;1.00
10873;DHT22;34586;53.616;10.032;2022-10-30T12:25:54;20.40;21.40
10873;DHT22;34586;53.616;10.032;2022-10-30T12:28:22;20.50;1.00
10873;DHT22;34586;53.616;10.032;2022-10-30T12:31:00;20.50;1.00
10873;DHT22;34586;53.616;10.032;2022-10-30T12:36:22;20.60;1.00
10873;DHT22;34586;53.616;10.032;2022-10-30T12:41:31;20.80;3.80
10873;DHT22;34586;53.616;10.032;2022-10-30T12:47:34;21.00;99.90
10873;DHT22;34586;53.616;10.032;2022-10-30T12:49:43;20.90;1.00
10873;DHT22;34586;53.616;10.032;2022-10-30T12:55:08;20.70;99.90
10873;DHT22;34586;53.616;10.032;2022-10-30T12:57:46;20.60;99.90
10873;DHT22;34586;53.616;10.032;2022-10-30T13:00:15;20.50;1.00
10873;DHT22;34586;53.616;10.032;2022-10-30T13:05:46;20.20;99.90
10873;DHT22;34586;53.616;10.032;2022-10-30T13:08:35;20.20;99.90
10873;DHT22;34586;53.616;10.032;2022-10-30T13:11:08;20.10;99.90
10873;DHT22;34586;53.616;10.032;2022-10-30T13:13:37;20.00;99.90
10873;DHT22;34586;53.616;10.032;2022-10-30T13:16:12;19.90;99.90
10873;DHT22;34586;53.616;10.032;2022-10-30T13:18:38;19.90;99.90
10873;DHT22;34586;53.616;10.032;2022-10-30T13:21:36;19.90;99.90
10873;DHT22;34586;53.616;10.032;2022-10-30T13:24:34;19.80;1.00
10873;DHT22;34586;53.616;10.032;2022-10-30T13:27:15;19.80;1.00
10873;DHT22;34586;53.616;10.032;2022-10-30T13:29:54;19.70;1.00
10873;DHT22;34586;53.616;10.032;2022-10-30T13:32:33;19.70;1.00
10873;DHT22;34586;53.616;10.032;2022-10-30T13:38:10;19.70;1.00
10873;DHT22;34586;53.616;10.032;2022-10-30T13:40:45;19.60;1.00
10873;DHT22;34586;53.616;10.032;2022-10-30T13:49:01;19.60;1.00
10873;DHT22;34586;53.616;10.032;2022-10-30T13:51:34;19.70;1.00
10873;DHT22;34586;53.616;10.032;2022-10-30T13:54:18;19.60;1.00
10873;DHT22;34586;53.616;10.032;2022-10-30T13:56:46;19.50;1.00
10873;DHT22;34586;53.616;10.032;2022-10-30T14:00:03;19.40;1.00
10873;DHT22;34586;53.616;10.032;2022-10-30T14:02:34;19.30;1.00
10873;DHT22;34586;53.616;10.032;2022-10-30T14:05:21;19.20;1.00
10873;DHT22;34586;53.616;10.032;2022-10-30T14:10:53;19.00;1.00
10873;DHT22;34586;53.616;10.032;2022-10-30T14:13:26;18.90;10.00
10873;DHT22;34586;53.616;10.032;2022-10-30T14:15:59;18.70;34.10
10873;DHT22;34586;53.616;10.032;2022-10-30T14:19:13;18.60;61.40
10873;DHT22;34586;53.616;10.032;2022-10-30T14:26:48;18.30;99.90
10873;DHT22;34586;53.616;10.032;2022-10-30T14:29:37;18.30;99.90
10873;DHT22;34586;53.616;10.032;2022-10-30T14:37:16;18.10;99.90
10873;DHT22;34586;53.616;10.032;2022-10-30T14:39:47;18.20;99.90
10873;DHT22;34586;53.616;10.032;2022-10-30T14:45:40;18.10;99.90
10873;DHT22;34586;53.616;10.032;2022-10-30T15:12:58;17.10;99.90
10873;DHT22;34586;53.616;10.032;2022-10-30T15:15:26;17.00;99.90
10873;DHT22;34586;53.616;10.032;2022-10-30T15:17:54;16.90;99.90
10873;DHT22;34586;53.616;10.032;2022-10-30T15:20:27;16.80;99.90
10873;DHT22;34586;53.616;10.032;2022-10-30T15:23:03;16.70;99.90
10873;DHT22;34586;53.616;10.032;2022-10-30T15:25:51;16.60;99.90
10873;DHT22;34586;53.616;10.032;2022-10-30T15:28:19;16.50;99.90
10873;DHT22;34586;53.616;10.032;2022-10-30T15:31:06;16.40;99.90
10873;DHT22;34586;53.616;10.032;2022-10-30T15:33:35;16.30;99.90
10873;DHT22;34586;53.616;10.032;2022-10-30T15:36:03;16.20;99.90
10873;DHT22;34586;53.616;10.032;2022-10-30T15:38:28;16.10;99.90
10873;DHT22;34586;53.616;10.032;2022-10-30T15:40:57;16.10;99.90
10873;DHT22;34586;53.616;10.032;2022-10-30T15:43:31;16.00;99.90
10873;DHT22;34586;53.616;10.032;2022-10-30T15:45:57;15.90;99.90
10873;DHT22;34586;53.616;10.032;2022-10-30T15:56:01;15.70;99.90
10873;DHT22;34586;53.616;10.032;2022-10-30T15:58:26;15.60;99.90
10873;DHT22;34586;53.616;10.032;2022-10-30T16:00:58;15.50;99.90
10873;DHT22;34586;53.616;10.032;2022-10-30T16:03:25;15.60;99.90
10873;DHT22;34586;53.616;10.032;2022-10-30T16:06:05;15.40;99.90
10873;DHT22;34586;53.616;10.032;2022-10-30T16:08:41;15.30;99.90
10873;DHT22;34586;53.616;10.032;2022-10-30T16:11:07;15.30;99.90
10873;DHT22;34586;53.616;10.032;2022-10-30T16:13:34;15.70;99.90
10873;DHT22;34586;53.616;10.032;2022-10-30T16:16:01;15.10;99.90
10873;DHT22;34586;53.616;10.032;2022-10-30T16:18:30;15.10;99.90
10873;DHT22;34586;53.616;10.032;2022-10-30T16:21:06;15.10;99.90
10873;DHT22;34586;53.616;10.032;2022-10-30T16:23:41;15.00;99.90
10873;DHT22;34586;53.616;10.032;2022-10-30T16:26:28;15.00;99.90
10873;DHT22;34586;53.616;10.032;2022-10-30T16:28:55;14.90;99.90
10873;DHT22;34586;53.616;10.032;2022-10-30T16:31:23;14.90;99.90
10873;DHT22;34586;53.616;10.032;2022-10-30T16:33:51;14.80;99.90
10873;DHT22;34586;53.616;10.032;2022-10-30T16:36:17;14.80;99.90
10873;DHT22;34586;53.616;10.032;2022-10-30T16:38:46;14.70;99.90
10873;DHT22;34586;53.616;10.032;2022-10-30T16:41:13;15.00;99.90
10873;DHT22;34586;53.616;10.032;2022-10-30T16:43:40;14.70;99.90
10873;DHT22;34586;53.616;10.032;2022-10-30T16:46:31;14.60;99.90
10873;DHT22;34586;53.616;10.032;2022-10-30T16:49:00;14.60;99.90
10873;DHT22;34586;53.616;10.032;2022-10-30T16:51:28;14.60;99.90
10873;DHT22;34586;53.616;10.032;2022-10-30T16:53:54;14.90;99.90
10873;DHT22;34586;53.616;10.032;2022-10-30T16:58:50;14.50;99.90
10873;DHT22;34586;53.616;10.032;2022-10-30T17:01:17;15.10;99.90
10873;DHT22;34586;53.616;10.032;2022-10-30T17:03:42;14.40;99.90
10873;DHT22;34586;53.616;10.032;2022-10-30T17:06:48;14.40;99.90
10873;DHT22;34586;53.616;10.032;2022-10-30T17:09:25;14.50;99.90
10873;DHT22;34586;53.616;10.032;2022-10-30T17:15:09;14.30;99.90
10873;DHT22;34586;53.616;10.032;2022-10-30T17:17:38;14.30;99.90
10873;DHT22;34586;53.616;10.032;2022-10-30T17:22:36;14.20;99.90
10873;DHT22;34586;53.616;10.032;2022-10-30T17:25:14;14.20;99.90
10873;DHT22;34586;53.616;10.032;2022-10-30T17:27:48;14.10;99.90
10873;DHT22;34586;53.616;10.032;2022-10-30T17:30:32;14.10;99.90
10873;DHT22;34586;53.616;10.032;2022-10-30T17:32:59;14.10;99.90
10873;DHT22;34586;53.616;10.032;2022-10-30T17:35:26;14.10;99.90
10873;DHT22;34586;53.616;10.032;2022-10-30T17:37:51;14.10;99.90
10873;DHT22;34586;53.616;10.032;2022-10-30T17:40:17;14.30;99.90
10873;DHT22;34586;53.616;10.032;2022-10-30T17:42:44;14.00;99.90
10873;DHT22;34586;53.616;10.032;2022-10-30T17:45:13;14.00;99.90
10873;DHT22;34586;53.616;10.032;2022-10-30T17:47:38;14.00;99.90
10873;DHT22;34586;53.616;10.032;2022-10-30T17:50:05;14.00;99.90
10873;DHT22;34586;53.616;10.032;2022-10-30T17:52:31;14.00;99.90
10873;DHT22;34586;53.616;10.032;2022-10-30T17:54:57;13.90;99.90
10873;DHT22;34586;53.616;10.032;2022-10-30T17:57:22;14.00;99.90